Main page
METAR-TAF:

METAR-TAF

Airports :

Gatwick Airport

London-Gatwick, England

latitude: 51-09N, longitude: 000-11W, elevation: 62 m

Current weather observation

The report was made 19 minutes ago, at 05:20 UTC
Wind 5 kt from the Southwest
Temperature 14°C
Humidity 82%
Pressure 1015 hPa
Visibility 10 km or more
no clouds below 1500 m and no cumulonimbus

METAR: EGKK 170520Z 23005KT CAVOK 14/11 Q1015

Time: 06:39 (05:39 UTC)

Forecast

The report was made 6 hours and 45 minutes ago, at 22:54 UTC
Forecast valid from 17 at 00 UTC to 18 at 06 UTC
Wind 8 kt from the West/Southwest
Visibility 10 km or more
no clouds below 1500 m and no cumulonimbus

TAF: EGKK 162254Z 1700/1806 24008KT CAVOK

Weather observations and forecasts of more than 4000 airports (METAR and TAF reports).

The available stations are represented by yellow and red dots on the map.

Hover mouse over dot to see the name of the station.

Then click to see weather observations and forecasts.

To change the map : click on the green buttons with a black cross to zoom in, on the green button with a dash to zoom out, or on the green arrows for adjacent maps.


METAR-TAF: